Observation data for Olton on 04/22/2019      Previous  Date  Next       Current Mesonet Observations  Soil Data  Daily Summary Page  Observations in Plain Language
KONS 220500Z 16009KT 15/M02 A2989 RMK A01 T01501024  RH  030%=      5-min Rain = 0
KONS 220505Z 18010KT 14/M03 A2989 RMK A01 T01431027  RH  031%=      5-min Rain = 0
KONS 220510Z 19011KT 15/M03 A2989 RMK A01 T01521030  RH  029%=      5-min Rain = 0
KONS 220515Z 19010KT 15/M03 A2989 RMK A01 T01531029  RH  029%=      5-min Rain = 0
KONS 220520Z 20010KT 15/M03 A2988 RMK A01 T01521028  RH  029%=      5-min Rain = 0
KONS 220525Z 19009KT 15/M03 A2988 RMK A01 T01501027  RH  030%=      5-min Rain = 0
KONS 220530Z 20008KT 15/M03 A2989 RMK A01 T01491026  RH  030%=      5-min Rain = 0
KONS 220535Z 20009KT 15/M03 A2989 RMK A01 T01471026  RH  031%=      5-min Rain = 0
KONS 220540Z 20009KT 15/M03 A2989 RMK A01 T01471028  RH  030%=      5-min Rain = 0
KONS 220545Z 21009KT 15/M03 A2989 RMK A01 T01481026  RH  030%=      5-min Rain = 0
KONS 220550Z 21007KT 15/M03 A2989 RMK A01 T01481028  RH  030%=      5-min Rain = 0
KONS 220555Z 22006KT 14/M03 A2989 RMK A01 T01441027  RH  031%=      5-min Rain = 0
KONS 220600Z 24006KT 14/M03 A2989 RMK A01 T01381025  RH  033%=      5-min Rain = 0
KONS 220605Z 23010KT 13/M03 A2989 RMK A01 T01331025  RH  034%=      5-min Rain = 0
KONS 220610Z 24010KT 13/M02 A2989 RMK A01 T01321024  RH  034%=      5-min Rain = 0
KONS 220615Z 24008KT 13/M02 A2989 RMK A01 T01291021  RH  036%=      5-min Rain = 0
KONS 220620Z 24008KT 13/M02 A2989 RMK A01 T01261019  RH  037%=      5-min Rain = 0
KONS 220625Z 24009KT 12/M02 A2989 RMK A01 T01241019  RH  037%=      5-min Rain = 0
KONS 220630Z 25010KT 12/M02 A2989 RMK A01 T01231020  RH  037%=      5-min Rain = 0
KONS 220635Z 26009KT 13/M03 A2989 RMK A01 T01271025  RH  035%=      5-min Rain = 0
KONS 220640Z 26008KT 13/M02 A299 RMK A01 T01271022  RH  036%=      5-min Rain = 0
KONS 220645Z 24009KT 13/M02 A299 RMK A01 T01251020  RH  037%=      5-min Rain = 0
KONS 220650Z 24011KT 12/M02 A299 RMK A01 T01191016  RH  040%=      5-min Rain = 0
KONS 220655Z 23010KT 12/M02 A299 RMK A01 T01181019  RH  039%=      5-min Rain = 0
KONS 220700Z 23011KT 12/M02 A299 RMK A01 T01191022  RH  038%=      5-min Rain = 0
KONS 220705Z 23011KT 12/M03 A299 RMK A01 T01221026  RH  036%=      5-min Rain = 0
KONS 220710Z 23011KT 13/M03 A299 RMK A01 T01251029  RH  034%=      5-min Rain = 0
KONS 220715Z 28007KT 13/M03 A299 RMK A01 T01271026  RH  035%=      5-min Rain = 0
KONS 220720Z 26007KT 12/M02 A299 RMK A01 T01221021  RH  037%=      5-min Rain = 0
KONS 220725Z 28007KT 12/M02 A299 RMK A01 T01171017  RH  040%=      5-min Rain = 0
KONS 220730Z 27007KT 12/M02 A299 RMK A01 T01161019  RH  040%=      5-min Rain = 0
KONS 220735Z 25006KT 12/M02 A299 RMK A01 T01181021  RH  038%=      5-min Rain = 0
KONS 220740Z 24007KT 11/M02 A2991 RMK A01 T01131018  RH  040%=      5-min Rain = 0
KONS 220745Z 24007KT 11/M02 A2991 RMK A01 T01111019  RH  041%=      5-min Rain = 0
KONS 220750Z 20009G14KT 11/M02 A2991 RMK A01 T01081022  RH  040%=      5-min Rain = 0
KONS 220755Z 18011KT 12/M03 A2992 RMK A01 T01171031  RH  036%=      5-min Rain = 0
KONS 220800Z 19010KT 13/M03 A2992 RMK A01 T01261032  RH  034%=      5-min Rain = 0
KONS 220805Z 22009KT 13/M03 A2992 RMK A01 T01291031  RH  033%=      5-min Rain = 0
KONS 220810Z 21009KT 13/M03 A2992 RMK A01 T01281027  RH  034%=      5-min Rain = 0
KONS 220815Z 21009KT 13/M02 A2992 RMK A01 T01261024  RH  035%=      5-min Rain = 0
KONS 220820Z 21011KT 13/M03 A2992 RMK A01 T01291025  RH  035%=      5-min Rain = 0
KONS 220825Z 21010KT 13/M03 A2992 RMK A01 T01331027  RH  033%=      5-min Rain = 0
KONS 220830Z 21011KT 14/M03 A2992 RMK A01 T01371030  RH  032%=      5-min Rain = 0
KONS 220835Z 21011KT 14/M03 A2992 RMK A01 T01381030  RH  031%=      5-min Rain = 0
KONS 220840Z 21010KT 14/M03 A2992 RMK A01 T01381029  RH  032%=      5-min Rain = 0
KONS 220845Z 21010KT 14/M03 A2992 RMK A01 T01381025  RH  032%=      5-min Rain = 0
KONS 220850Z 21011KT 15/M02 A2992 RMK A01 T01451020  RH  032%=      5-min Rain = 0
KONS 220855Z 21011KT 15/M02 A2992 RMK A01 T01471016  RH  033%=      5-min Rain = 0
KONS 220900Z 20010KT 15/M01 A2992 RMK A01 T01481011  RH  034%=      5-min Rain = 0
KONS 220905Z 21010KT 15/M01 A2992 RMK A01 T01461006  RH  036%=      5-min Rain = 0
KONS 220910Z 21008KT 15/M00 A2992 RMK A01 T01451002  RH  037%=      5-min Rain = 0
KONS 220915Z 21009KT 14/00 A2992 RMK A01 T014200-0  RH  038%=      5-min Rain = 0
KONS 220920Z 21009KT 14/00 A2992 RMK A01 T01390000  RH  039%=      5-min Rain = 0
KONS 220925Z 21010KT 14/00 A2992 RMK A01 T01350003  RH  041%=      5-min Rain = 0
KONS 220930Z 21010KT 14/01 A2992 RMK A01 T01350007  RH  042%=      5-min Rain = 0
KONS 220935Z 22010KT 14/01 A2992 RMK A01 T01350010  RH  043%=      5-min Rain = 0
KONS 220940Z 25009G15KT 14/01 A2993 RMK A01 T01350011  RH  043%=      5-min Rain = 0
KONS 220945Z 32013G23KT 13/01 A2994 RMK A01 T01320007  RH  043%=      5-min Rain = 0
KONS 220950Z 30014G20KT 15/04 A2995 RMK A01 T01530044  RH  048%=      5-min Rain = 0
KONS 220955Z 32012KT 17/03 A2995 RMK A01 T01660032  RH  041%=      5-min Rain = 0
KONS 221000Z 30008KT 16/02 A2995 RMK A01 T01630024  RH  040%=      5-min Rain = 0
KONS 221005Z 31008G13KT 16/02 A2995 RMK A01 T01590018  RH  039%=      5-min Rain = 0
KONS 221010Z 35012KT 15/M01 A2996 RMK A01 T01491005  RH  035%=      5-min Rain = 0
KONS 221015Z 36011KT 14/00 A2996 RMK A01 T01380002  RH  040%=      5-min Rain = 0
KONS 221020Z 00013KT 13/02 A2996 RMK A01 T01320019  RH  047%=      5-min Rain = 0
KONS 221025Z 01012KT 13/03 A2996 RMK A01 T01280027  RH  051%=      5-min Rain = 0
KONS 221030Z 00013KT 13/03 A2996 RMK A01 T01260033  RH  053%=      5-min Rain = 0
KONS 221035Z 00013G19KT 13/04 A2996 RMK A01 T01250036  RH  055%=      5-min Rain = 0
KONS 221040Z 01012KT 12/04 A2996 RMK A01 T01230038  RH  057%=      5-min Rain = 0
KONS 221045Z 01011KT 12/04 A2996 RMK A01 T01200041  RH  059%=      5-min Rain = 0
KONS 221050Z 01013KT 12/05 A2996 RMK A01 T01190045  RH  062%=      5-min Rain = 0
KONS 221055Z 01013G22KT 12/05 A2997 RMK A01 T01180048  RH  063%=      5-min Rain = 0
KONS 221100Z 36010G20KT 12/05 A2997 RMK A01 T01190049  RH  063%=      5-min Rain = 0
KONS 221105Z 01012G17KT 12/05 A2997 RMK A01 T01190051  RH  064%=      5-min Rain = 0
KONS 221110Z 02012G18KT 12/05 A2997 RMK A01 T01160053  RH  066%=      5-min Rain = 0
KONS 221115Z 02010KT 12/05 A2997 RMK A01 T01160054  RH  067%=      5-min Rain = 0
KONS 221120Z 02010G15KT 12/06 A2997 RMK A01 T01150056  RH  068%=      5-min Rain = 0
KONS 221125Z 02011KT 11/06 A2997 RMK A01 T01140056  RH  069%=      5-min Rain = 0
KONS 221130Z 02011KT 11/06 A2997 RMK A01 T01130057  RH  069%=      5-min Rain = 0
KONS 221135Z 02011KT 11/06 A2998 RMK A01 T01120057  RH  070%=      5-min Rain = 0
KONS 221140Z 02013G18KT 11/06 A2998 RMK A01 T01130058  RH  070%=      5-min Rain = 0
KONS 221145Z 03012G17KT 11/06 A2999 RMK A01 T01140058  RH  069%=      5-min Rain = 0
KONS 221150Z 03012KT 11/06 A2999 RMK A01 T01140058  RH  070%=      5-min Rain = 0
KONS 221155Z 02011KT 11/06 A2999 RMK A01 T01130058  RH  070%=      5-min Rain = 0
KONS 221200Z 02010KT 11/06 A2999 RMK A01 T01110058  RH  071%=      5-min Rain = 0
KONS 221205Z 02010KT 11/06 A30 RMK A01 T01100058  RH  071%=      5-min Rain = 0
KONS 221210Z 02011KT 11/06 A30 RMK A01 T01100058  RH  072%=      5-min Rain = 0
KONS 221215Z 02011KT 11/06 A3001 RMK A01 T01090058  RH  072%=      5-min Rain = 0
KONS 221220Z 02011G16KT 11/06 A3001 RMK A01 T01080058  RH  072%=      5-min Rain = 0
KONS 221225Z 02014KT 11/06 A3001 RMK A01 T01090057  RH  071%=      5-min Rain = 0
KONS 221230Z 02011KT 11/06 A3001 RMK A01 T01090057  RH  071%=      5-min Rain = 0
KONS 221235Z 03012G17KT 11/06 A3002 RMK A01 T01080057  RH  072%=      5-min Rain = 0
KONS 221240Z 03013KT 11/06 A3002 RMK A01 T01080057  RH  072%=      5-min Rain = 0
KONS 221245Z 03012KT 11/06 A3003 RMK A01 T01080057  RH  072%=      5-min Rain = 0
KONS 221250Z 03011KT 11/06 A3003 RMK A01 T01080058  RH  072%=      5-min Rain = 0
KONS 221255Z 03012KT 11/06 A3003 RMK A01 T01090058  RH  072%=      5-min Rain = 0
KONS 221300Z 03012G17KT 11/06 A3004 RMK A01 T01090059  RH  072%=      5-min Rain = 0
KONS 221305Z 03013KT 11/06 A3004 RMK A01 T01080060  RH  073%=      5-min Rain = 0
KONS 221310Z 03014KT 11/06 A3003 RMK A01 T01080060  RH  073%=      5-min Rain = 0
KONS 221315Z 03013G18KT 11/06 A3004 RMK A01 T01080061  RH  074%=      5-min Rain = 0
KONS 221320Z 03012G19KT 11/06 A3004 RMK A01 T01080062  RH  074%=      5-min Rain = 0
KONS 221325Z 03012G17KT 11/06 A3005 RMK A01 T01080063  RH  075%=      5-min Rain = 0
KONS 221330Z 03013KT 11/06 A3005 RMK A01 T01090064  RH  075%=      5-min Rain = 0
KONS 221335Z 02013G18KT 11/07 A3005 RMK A01 T01100065  RH  075%=      5-min Rain = 0
KONS 221340Z 03012G18KT 11/07 A3005 RMK A01 T01110066  RH  075%=      5-min Rain = 0
KONS 221345Z 02015KT 11/07 A3005 RMK A01 T01120067  RH  075%=      5-min Rain = 0
KONS 221350Z 03015G20KT 11/07 A3005 RMK A01 T01120068  RH  075%=      5-min Rain = 0
KONS 221355Z 02013G19KT 11/07 A3005 RMK A01 T01130069  RH  075%=      5-min Rain = 0
KONS 221400Z 02015KT 11/07 A3005 RMK A01 T01140070  RH  075%=      5-min Rain = 0
KONS 221405Z 02015KT 12/07 A3005 RMK A01 T01150070  RH  075%=      5-min Rain = 0
KONS 221410Z 02015G20KT 12/07 A3005 RMK A01 T01160071  RH  075%=      5-min Rain = 0
KONS 221415Z 02014G19KT 12/07 A3006 RMK A01 T01190073  RH  075%=      5-min Rain = 0
KONS 221420Z 02016G21KT 12/07 A3006 RMK A01 T01210074  RH  074%=      5-min Rain = 0
KONS 221425Z 02017KT 12/08 A3006 RMK A01 T01230075  RH  074%=      5-min Rain = 0
KONS 221430Z 02018KT 13/08 A3006 RMK A01 T01250075  RH  073%=      5-min Rain = 0
KONS 221435Z 02016G21KT 13/08 A3006 RMK A01 T01260076  RH  073%=      5-min Rain = 0
KONS 221440Z 02019KT 13/08 A3006 RMK A01 T01250076  RH  073%=      5-min Rain = 0
KONS 221445Z 02018KT 12/08 A3006 RMK A01 T01240076  RH  074%=      5-min Rain = 0
KONS 221450Z 02016G23KT 13/08 A3006 RMK A01 T01260078  RH  073%=      5-min Rain = 0
KONS 221455Z 02018KT 13/08 A3006 RMK A01 T01270077  RH  073%=      5-min Rain = 0
KONS 221500Z 02018KT 13/08 A3007 RMK A01 T01280078  RH  073%=      5-min Rain = 0
KONS 221505Z 02018KT 13/08 A3007 RMK A01 T01300079  RH  072%=      5-min Rain = 0
KONS 221510Z 02017KT 13/08 A3007 RMK A01 T01310080  RH  072%=      5-min Rain = 0
KONS 221515Z 02016G21KT 13/08 A3007 RMK A01 T01340082  RH  072%=      5-min Rain = 0
KONS 221520Z 02017G23KT 14/08 A3007 RMK A01 T01380083  RH  070%=      5-min Rain = 0
KONS 221525Z 03018G24KT 14/08 A3006 RMK A01 T01390082  RH  070%=      5-min Rain = 0
KONS 221530Z 02016G21KT 14/08 A3006 RMK A01 T01400084  RH  070%=      5-min Rain = 0
KONS 221535Z 03017G22KT 14/08 A3006 RMK A01 T01440084  RH  068%=      5-min Rain = 0
KONS 221540Z 03019KT 14/08 A3006 RMK A01 T01440083  RH  068%=      5-min Rain = 0
KONS 221545Z 03018G23KT 14/08 A3006 RMK A01 T01440083  RH  067%=      5-min Rain = 0
KONS 221550Z 03018G24KT 14/08 A3007 RMK A01 T01430082  RH  068%=      5-min Rain = 0
KONS 221555Z 03017G23KT 14/08 A3007 RMK A01 T01430083  RH  068%=      5-min Rain = 0
KONS 221600Z 03019KT 14/08 A3007 RMK A01 T01440082  RH  067%=      5-min Rain = 0
KONS 221605Z 03017KT 15/08 A3007 RMK A01 T01450083  RH  067%=      5-min Rain = 0
KONS 221610Z 03015G20KT 15/08 A3007 RMK A01 T01460084  RH  067%=      5-min Rain = 0
KONS 221615Z 02016KT 15/08 A3007 RMK A01 T01480084  RH  067%=      5-min Rain = 0
KONS 221620Z 03017KT 15/08 A3007 RMK A01 T01460083  RH  067%=      5-min Rain = 0
KONS 221625Z 03018G25KT 15/08 A3006 RMK A01 T01470084  RH  067%=      5-min Rain = 0
KONS 221630Z 03019G26KT 15/08 A3005 RMK A01 T01480084  RH  066%=      5-min Rain = 0
KONS 221635Z 02015G21KT 15/09 A3007 RMK A01 T01510085  RH  066%=      5-min Rain = 0
KONS 221640Z 02019KT 15/09 A3006 RMK A01 T01520085  RH  065%=      5-min Rain = 0
KONS 221645Z 02016G21KT 15/09 A3007 RMK A01 T01540087  RH  065%=      5-min Rain = 0
KONS 221650Z 02016KT 16/09 A3007 RMK A01 T01570086  RH  064%=      5-min Rain = 0
KONS 221655Z 02018KT 16/09 A3007 RMK A01 T01560087  RH  064%=      5-min Rain = 0
KONS 221700Z 02017KT 16/09 A3007 RMK A01 T01560086  RH  064%=      5-min Rain = 0
KONS 221705Z 03016G22KT 16/09 A3007 RMK A01 T01580087  RH  064%=      5-min Rain = 0
KONS 221710Z 02017G23KT 16/09 A3006 RMK A01 T01590086  RH  063%=      5-min Rain = 0
KONS 221715Z 03019G24KT 16/09 A3006 RMK A01 T01590086  RH  063%=      5-min Rain = 0
KONS 221720Z 03017G24KT 16/09 A3006 RMK A01 T01610087  RH  063%=      5-min Rain = 0
KONS 221725Z 03016G23KT 16/09 A3006 RMK A01 T01620086  RH  061%=      5-min Rain = 0
KONS 221730Z 03014G20KT 16/09 A3007 RMK A01 T01620086  RH  062%=      5-min Rain = 0
KONS 221735Z 02016KT 16/09 A3007 RMK A01 T01640086  RH  061%=      5-min Rain = 0
KONS 221740Z 03015KT 17/09 A3007 RMK A01 T01650086  RH  061%=      5-min Rain = 0
KONS 221745Z 03015G21KT 16/09 A3007 RMK A01 T01630085  RH  061%=      5-min Rain = 0
KONS 221750Z 02016G22KT 17/09 A3006 RMK A01 T01650087  RH  061%=      5-min Rain = 0
KONS 221755Z 03016KT 17/09 A3006 RMK A01 T01650086  RH  060%=      5-min Rain = 0
KONS 221800Z 03018G23KT 16/09 A3006 RMK A01 T01640086  RH  061%=      5-min Rain = 0
KONS 221805Z 04014G21KT 17/09 A3007 RMK A01 T01650087  RH  061%=      5-min Rain = 0
KONS 221810Z 03015G23KT 17/09 A3007 RMK A01 T01680087  RH  060%=      5-min Rain = 0
KONS 221815Z 04016G22KT 17/09 A3007 RMK A01 T01680087  RH  059%=      5-min Rain = 0
KONS 221820Z 04015G21KT 17/09 A3006 RMK A01 T01720088  RH  059%=      5-min Rain = 0
KONS 221825Z 03018G23KT 17/09 A3006 RMK A01 T01720086  RH  058%=      5-min Rain = 0
KONS 221830Z 03015KT 17/09 A3007 RMK A01 T01710087  RH  058%=      5-min Rain = 0
KONS 221835Z 03017G23KT 17/09 A3006 RMK A01 T01720086  RH  058%=      5-min Rain = 0
KONS 221840Z 04018G24KT 17/09 A3005 RMK A01 T01710086  RH  058%=      5-min Rain = 0
KONS 221845Z 04018G23KT 17/09 A3005 RMK A01 T01720086  RH  058%=      5-min Rain = 0
KONS 221850Z 04019G24KT 17/09 A3005 RMK A01 T01740087  RH  057%=      5-min Rain = 0
KONS 221855Z 04016G23KT 17/09 A3006 RMK A01 T01730087  RH  058%=      5-min Rain = 0
KONS 221900Z 05013G18KT 18/09 A3008 RMK A01 T01750087  RH  057%=      5-min Rain = 0
KONS 221905Z 04009G14KT 18/09 A301 RMK A01 T01750087  RH  057%=      5-min Rain = 0
KONS 221910Z 03013KT 18/09 A3009 RMK A01 T01750088  RH  057%=      5-min Rain = 0
KONS 221915Z 03011KT 18/09 A3008 RMK A01 T01760087  RH  057%=      5-min Rain = 0
KONS 221920Z 04011G17KT 18/09 A3009 RMK A01 T01770088  RH  057%=      5-min Rain = 0
KONS 221925Z 04016G21KT 18/09 A3008 RMK A01 T01760086  RH  056%=      5-min Rain = 0
KONS 221930Z 04013G18KT 18/09 A3008 RMK A01 T01760086  RH  056%=      5-min Rain = 0
KONS 221935Z 03014G19KT 18/09 A3008 RMK A01 T01780087  RH  056%=      5-min Rain = 0
KONS 221940Z 04015KT 18/09 A3007 RMK A01 T01780087  RH  056%=      5-min Rain = 0
KONS 221945Z 04017G22KT 18/09 A3006 RMK A01 T01770087  RH  056%=      5-min Rain = 0
KONS 221950Z 05017G23KT 18/09 A3005 RMK A01 T01760085  RH  056%=      5-min Rain = 0
KONS 221955Z 05016G21KT 18/09 A3005 RMK A01 T01770086  RH  056%=      5-min Rain = 0
KONS 222000Z 03017G24KT 18/09 A3005 RMK A01 T01770086  RH  056%=      5-min Rain = 0
KONS 222005Z 05015G20KT 18/09 A3005 RMK A01 T01780087  RH  056%=      5-min Rain = 0
KONS 222010Z 05014G19KT 18/09 A3006 RMK A01 T01780087  RH  056%=      5-min Rain = 0
KONS 222015Z 05014G19KT 18/09 A3007 RMK A01 T01780086  RH  056%=      5-min Rain = 0
KONS 222020Z 06014KT 18/09 A3007 RMK A01 T01780087  RH  056%=      5-min Rain = 0
KONS 222025Z 07014G20KT 18/09 A3007 RMK A01 T01780089  RH  057%=      5-min Rain = 0
KONS 222030Z 07014KT 18/09 A3007 RMK A01 T01780090  RH  057%=      5-min Rain = 0
KONS 222035Z 07013G18KT 18/09 A3007 RMK A01 T01790089  RH  057%=      5-min Rain = 0
KONS 222040Z 07013G18KT 18/09 A3007 RMK A01 T01780088  RH  056%=      5-min Rain = 0
KONS 222045Z 06014KT 18/09 A3007 RMK A01 T01770087  RH  057%=      5-min Rain = 0
KONS 222050Z 05014KT 18/09 A3007 RMK A01 T01760087  RH  057%=      5-min Rain = 0
KONS 222055Z 08012KT 18/09 A3008 RMK A01 T01760088  RH  057%=      5-min Rain = 0
KONS 222100Z 08014G20KT 18/09 A3008 RMK A01 T01770088  RH  057%=      5-min Rain = 0
KONS 222105Z 07015KT 18/09 A3007 RMK A01 T01760089  RH  057%=      5-min Rain = 0
KONS 222110Z 07012KT 18/09 A3008 RMK A01 T01750089  RH  058%=      5-min Rain = 0
KONS 222115Z 05012KT 18/09 A3007 RMK A01 T01760090  RH  058%=      5-min Rain = 0
KONS 222120Z 05014G19KT 18/09 A3006 RMK A01 T01780092  RH  058%=      5-min Rain = 0
KONS 222125Z 06011G16KT 18/09 A3006 RMK A01 T01780093  RH  058%=      5-min Rain = 0
KONS 222130Z 07011KT 18/09 A3008 RMK A01 T01760092  RH  059%=      5-min Rain = 0
KONS 222135Z 06013KT 17/09 A3008 RMK A01 T01740092  RH  059%=      5-min Rain = 0
KONS 222140Z 07011KT 17/09 A3007 RMK A01 T01740094  RH  060%=      5-min Rain = 0
KONS 222145Z 09011KT 17/09 A3009 RMK A01 T01730094  RH  061%=      5-min Rain = 0
KONS 222150Z 08011KT 17/10 A3008 RMK A01 T01730096  RH  062%=      5-min Rain = 0
KONS 222155Z 07011KT 17/10 A3008 RMK A01 T01700100  RH  064%=      5-min Rain = 0
KONS 222200Z 07015G20KT 17/10 A3007 RMK A01 T01700098  RH  064%=      5-min Rain = 0
KONS 222205Z 05014KT 17/10 A3006 RMK A01 T01710097  RH  063%=      5-min Rain = 0
KONS 222210Z 05012KT 17/10 A3007 RMK A01 T01700096  RH  062%=      5-min Rain = 0
KONS 222215Z 04011G16KT 17/10 A3007 RMK A01 T01700095  RH  062%=      5-min Rain = 0
KONS 222220Z 06010KT 17/09 A3008 RMK A01 T01700093  RH  062%=      5-min Rain = 0
KONS 222225Z 06009KT 17/09 A3009 RMK A01 T01690094  RH  062%=      5-min Rain = 0
KONS 222230Z 09009KT 17/10 A301 RMK A01 T01670098  RH  065%=      5-min Rain = 0
KONS 222235Z 08011KT 16/10 A301 RMK A01 T01630103  RH  069%=      5-min Rain = 0
KONS 222240Z 07012KT 16/11 A3009 RMK A01 T01580106  RH  073%=      5-min Rain = 0
KONS 222245Z 06010KT 15/11 A3009 RMK A01 T01540110  RH  076%=      5-min Rain = 0
KONS 222250Z 05010KT 15/11 A3008 RMK A01 T01520112  RH  078%=      5-min Rain = 0
KONS 222255Z 05010KT 15/11 A3008 RMK A01 T01510112  RH  079%=      5-min Rain = 0
KONS 222300Z 05011KT 15/11 A3008 RMK A01 T01500113  RH  080%=      5-min Rain = 0.01
KONS 222305Z 05011KT 15/11 A3008 RMK A01 T01490113  RH  081%=      5-min Rain = 0
KONS 222310Z 04011KT 15/11 A3007 RMK A01 T01480114  RH  081%=      5-min Rain = 0
KONS 222315Z 03013KT 15/12 A3006 RMK A01 T01470115  RH  082%=      5-min Rain = 0
KONS 222320Z 04012KT 15/12 A3006 RMK A01 T01480116  RH  083%=      5-min Rain = 0
KONS 222325Z 04011KT 15/12 A3007 RMK A01 T01480117  RH  083%=      5-min Rain = 0.01
KONS 222330Z 04008KT 15/12 A3007 RMK A01 T01470117  RH  084%=      5-min Rain = 0
KONS 222335Z 04009KT 15/12 A3008 RMK A01 T01460115  RH  083%=      5-min Rain = 0
KONS 222340Z 06007KT 15/12 A3009 RMK A01 T01460116  RH  084%=      5-min Rain = 0
KONS 222345Z 06008KT 14/12 A3009 RMK A01 T01440116  RH  085%=      5-min Rain = 0
KONS 222350Z 05009KT 14/12 A3009 RMK A01 T01440117  RH  085%=      5-min Rain = 0
KONS 222355Z 05009KT 14/12 A3008 RMK A01 T01440118  RH  086%=      5-min Rain = 0
KONS 230000Z 04009KT 14/12 A3008 RMK A01 T01440119  RH  086%=      5-min Rain = 0
KONS 230005Z 04010KT 14/12 A3007 RMK A01 T01440120  RH  087%=      5-min Rain = 0
KONS 230010Z 04012KT 14/12 A3007 RMK A01 T01430119  RH  087%=      5-min Rain = 0
KONS 230015Z 05012KT 14/12 A3006 RMK A01 T01420117  RH  087%=      5-min Rain = 0
KONS 230020Z 04012KT 14/12 A3006 RMK A01 T01410117  RH  087%=      5-min Rain = 0
KONS 230025Z 04012KT 14/12 A3006 RMK A01 T01400117  RH  088%=      5-min Rain = 0
KONS 230030Z 04012KT 14/12 A3006 RMK A01 T01390116  RH  088%=      5-min Rain = 0
KONS 230035Z 04013KT 14/12 A3005 RMK A01 T01380115  RH  088%=      5-min Rain = 0
KONS 230040Z 04013KT 14/12 A3005 RMK A01 T01380115  RH  088%=      5-min Rain = 0
KONS 230045Z 04013KT 14/12 A3005 RMK A01 T01370116  RH  088%=      5-min Rain = 0
KONS 230050Z 04011KT 14/12 A3005 RMK A01 T01370116  RH  089%=      5-min Rain = 0
KONS 230055Z 04011KT 14/12 A3005 RMK A01 T01370117  RH  089%=      5-min Rain = 0
KONS 230100Z 03012KT 14/12 A3006 RMK A01 T01350115  RH  090%=      5-min Rain = 0
KONS 230105Z 03013KT 13/11 A3006 RMK A01 T01330113  RH  089%=      5-min Rain = 0
KONS 230110Z 03013KT 13/11 A3006 RMK A01 T01310112  RH  089%=      5-min Rain = 0
KONS 230115Z 03013KT 13/11 A3006 RMK A01 T01300111  RH  090%=      5-min Rain = 0
KONS 230120Z 03014KT 13/11 A3006 RMK A01 T01300111  RH  090%=      5-min Rain = 0
KONS 230125Z 04013KT 13/11 A3006 RMK A01 T01290111  RH  090%=      5-min Rain = 0
KONS 230130Z 04012KT 13/11 A3006 RMK A01 T01290111  RH  091%=      5-min Rain = 0
KONS 230135Z 04011KT 13/11 A3007 RMK A01 T01280111  RH  091%=      5-min Rain = 0
KONS 230140Z 04011KT 13/11 A3007 RMK A01 T01280111  RH  091%=      5-min Rain = 0
KONS 230145Z 05010KT 13/11 A3007 RMK A01 T01280111  RH  091%=      5-min Rain = 0
KONS 230150Z 05010KT 13/11 A3007 RMK A01 T01280111  RH  091%=      5-min Rain = 0
KONS 230155Z 05010KT 13/11 A3008 RMK A01 T01280111  RH  091%=      5-min Rain = 0
KONS 230200Z 05008KT 13/11 A3008 RMK A01 T01280112  RH  091%=      5-min Rain = 0
KONS 230205Z 04008KT 13/11 A3008 RMK A01 T01280112  RH  092%=      5-min Rain = 0
KONS 230210Z 04006KT 13/11 A3009 RMK A01 T01280113  RH  092%=      5-min Rain = 0.01
KONS 230215Z 03008KT 13/11 A3009 RMK A01 T01280113  RH  092%=      5-min Rain = 0.01
KONS 230220Z 03010KT 13/11 A3008 RMK A01 T01270112  RH  093%=      5-min Rain = 0.01
KONS 230225Z 04010KT 13/11 A3008 RMK A01 T01260113  RH  093%=      5-min Rain = 0.01
KONS 230230Z 05010KT 13/11 A3009 RMK A01 T01260113  RH  093%=      5-min Rain = 0
KONS 230235Z 05011KT 13/11 A3009 RMK A01 T01250112  RH  094%=      5-min Rain = 0
KONS 230240Z 06012KT 13/11 A3009 RMK A01 T01250112  RH  094%=      5-min Rain = 0
KONS 230245Z 06012KT 12/11 A3009 RMK A01 T01240112  RH  094%=      5-min Rain = 0
KONS 230250Z 06012KT 12/11 A3009 RMK A01 T01240111  RH  094%=      5-min Rain = 0
KONS 230255Z 05014G19KT 12/11 A3008 RMK A01 T01230111  RH  094%=      5-min Rain = 0
KONS 230300Z 04015G20KT 12/11 A3007 RMK A01 T01230110  RH  093%=      5-min Rain = 0
KONS 230305Z 03017KT 12/11 A3006 RMK A01 T01230109  RH  093%=      5-min Rain = 0
KONS 230310Z 03017G22KT 12/11 A3006 RMK A01 T01220108  RH  093%=      5-min Rain = 0
KONS 230315Z 03014KT 12/11 A3006 RMK A01 T01220108  RH  093%=      5-min Rain = 0
KONS 230320Z 03015G21KT 12/11 A3006 RMK A01 T01220107  RH  092%=      5-min Rain = 0
KONS 230325Z 03017G23KT 12/11 A3006 RMK A01 T01220106  RH  092%=      5-min Rain = 0
KONS 230330Z 03015G22KT 12/11 A3006 RMK A01 T01210106  RH  092%=      5-min Rain = 0
KONS 230335Z 04016KT 12/11 A3006 RMK A01 T01210106  RH  092%=      5-min Rain = 0
KONS 230340Z 04014G19KT 12/11 A3006 RMK A01 T01210106  RH  092%=      5-min Rain = 0
KONS 230345Z 05015KT 12/11 A3006 RMK A01 T01210106  RH  092%=      5-min Rain = 0
KONS 230350Z 05013KT 12/11 A3007 RMK A01 T01210106  RH  092%=      5-min Rain = 0
KONS 230355Z 06013KT 12/11 A3007 RMK A01 T01210105  RH  092%=      5-min Rain = 0
KONS 230400Z 06012KT 12/11 A3007 RMK A01 T01200105  RH  092%=      5-min Rain = 0
KONS 230405Z 05013KT 12/11 A3007 RMK A01 T01190105  RH  092%=      5-min Rain = 0
KONS 230410Z 06012KT 12/10 A3007 RMK A01 T01190104  RH  092%=      5-min Rain = 0
KONS 230415Z 05012G17KT 12/10 A3006 RMK A01 T01180104  RH  093%=      5-min Rain = 0
KONS 230420Z 05012KT 12/10 A3006 RMK A01 T01180104  RH  093%=      5-min Rain = 0
KONS 230425Z 04011G16KT 12/10 A3006 RMK A01 T01170103  RH  093%=      5-min Rain = 0
KONS 230430Z 04012KT 12/10 A3006 RMK A01 T01160103  RH  093%=      5-min Rain = 0
KONS 230435Z 04013KT 12/10 A3006 RMK A01 T01160103  RH  093%=      5-min Rain = 0
KONS 230440Z 04013KT 12/10 A3006 RMK A01 T01160103  RH  093%=      5-min Rain = 0
KONS 230445Z 04014KT 12/10 A3006 RMK A01 T01170104  RH  093%=      5-min Rain = 0
KONS 230450Z 03013KT 12/10 A3007 RMK A01 T01170104  RH  093%=      5-min Rain = 0
KONS 230455Z 03011KT 12/11 A3007 RMK A01 T01180105  RH  093%=      5-min Rain = 0

Page generated in 0.0217 seconds.